sensor_id;sensor_type;location;lat;lon;timestamp;P1;durP1;ratioP1;P2;durP2;ratioP2
35128;SDS011;21301;43.626;10.580;2023-08-21T00:01:21;11.13;;;7.28;;
35128;SDS011;21301;43.626;10.580;2023-08-21T00:03:47;11.00;;;7.22;;
35128;SDS011;21301;43.626;10.580;2023-08-21T00:06:12;8.93;;;6.95;;
35128;SDS011;21301;43.626;10.580;2023-08-21T00:08:38;11.85;;;7.15;;
35128;SDS011;21301;43.626;10.580;2023-08-21T00:11:04;8.98;;;6.40;;
35128;SDS011;21301;43.626;10.580;2023-08-21T00:13:30;10.13;;;7.25;;
35128;SDS011;21301;43.626;10.580;2023-08-21T00:15:55;9.43;;;7.00;;
35128;SDS011;21301;43.626;10.580;2023-08-21T00:18:21;9.02;;;6.97;;
35128;SDS011;21301;43.626;10.580;2023-08-21T00:20:47;10.40;;;7.55;;
35128;SDS011;21301;43.626;10.580;2023-08-21T00:23:14;8.52;;;6.25;;
35128;SDS011;21301;43.626;10.580;2023-08-21T00:25:40;14.20;;;7.85;;
35128;SDS011;21301;43.626;10.580;2023-08-21T00:28:11;9.52;;;6.90;;
35128;SDS011;21301;43.626;10.580;2023-08-21T00:30:37;10.68;;;8.05;;
35128;SDS011;21301;43.626;10.580;2023-08-21T00:33:03;9.32;;;7.10;;
35128;SDS011;21301;43.626;10.580;2023-08-21T00:35:29;12.02;;;7.43;;
35128;SDS011;21301;43.626;10.580;2023-08-21T00:37:55;8.80;;;6.90;;
35128;SDS011;21301;43.626;10.580;2023-08-21T00:40:20;9.70;;;7.45;;
35128;SDS011;21301;43.626;10.580;2023-08-21T00:42:46;10.35;;;7.68;;
35128;SDS011;21301;43.626;10.580;2023-08-21T00:45:12;14.15;;;8.23;;
35128;SDS011;21301;43.626;10.580;2023-08-21T00:47:38;10.40;;;7.82;;
35128;SDS011;21301;43.626;10.580;2023-08-21T00:50:05;13.25;;;7.55;;
35128;SDS011;21301;43.626;10.580;2023-08-21T00:52:35;13.73;;;8.07;;
35128;SDS011;21301;43.626;10.580;2023-08-21T00:55:05;10.07;;;8.20;;
35128;SDS011;21301;43.626;10.580;2023-08-21T00:57:32;11.90;;;7.55;;
35128;SDS011;21301;43.626;10.580;2023-08-21T00:59:59;11.13;;;7.82;;
35128;SDS011;21301;43.626;10.580;2023-08-21T01:02:26;11.50;;;8.02;;
35128;SDS011;21301;43.626;10.580;2023-08-21T01:04:52;10.75;;;7.43;;
35128;SDS011;21301;43.626;10.580;2023-08-21T01:07:18;10.10;;;7.97;;
35128;SDS011;21301;43.626;10.580;2023-08-21T01:09:54;11.73;;;7.78;;
35128;SDS011;21301;43.626;10.580;2023-08-21T01:12:35;13.10;;;7.95;;
35128;SDS011;21301;43.626;10.580;2023-08-21T01:15:11;12.20;;;7.57;;
35128;SDS011;21301;43.626;10.580;2023-08-21T01:17:38;11.30;;;7.82;;
35128;SDS011;21301;43.626;10.580;2023-08-21T01:20:06;10.55;;;8.02;;
35128;SDS011;21301;43.626;10.580;2023-08-21T01:22:36;12.55;;;8.57;;
35128;SDS011;21301;43.626;10.580;2023-08-21T01:25:07;11.02;;;8.20;;
35128;SDS011;21301;43.626;10.580;2023-08-21T01:27:36;10.23;;;8.00;;
35128;SDS011;21301;43.626;10.580;2023-08-21T01:30:03;14.20;;;9.93;;
35128;SDS011;21301;43.626;10.580;2023-08-21T01:32:53;11.48;;;8.05;;
35128;SDS011;21301;43.626;10.580;2023-08-21T01:35:21;11.13;;;7.97;;
35128;SDS011;21301;43.626;10.580;2023-08-21T01:37:49;9.48;;;7.63;;
35128;SDS011;21301;43.626;10.580;2023-08-21T01:40:21;11.68;;;7.95;;
35128;SDS011;21301;43.626;10.580;2023-08-21T01:42:47;9.27;;;7.45;;
35128;SDS011;21301;43.626;10.580;2023-08-21T01:45:13;13.00;;;8.80;;
35128;SDS011;21301;43.626;10.580;2023-08-21T01:47:39;9.32;;;7.75;;
35128;SDS011;21301;43.626;10.580;2023-08-21T01:50:07;10.95;;;7.97;;
35128;SDS011;21301;43.626;10.580;2023-08-21T01:52:33;9.38;;;7.40;;
35128;SDS011;21301;43.626;10.580;2023-08-21T01:54:59;10.27;;;7.82;;
35128;SDS011;21301;43.626;10.580;2023-08-21T01:57:25;11.95;;;8.07;;
35128;SDS011;21301;43.626;10.580;2023-08-21T01:59:50;10.48;;;7.80;;
35128;SDS011;21301;43.626;10.580;2023-08-21T02:02:16;11.50;;;8.32;;
35128;SDS011;21301;43.626;10.580;2023-08-21T02:04:42;14.32;;;7.88;;
35128;SDS011;21301;43.626;10.580;2023-08-21T02:07:09;9.00;;;7.93;;
35128;SDS011;21301;43.626;10.580;2023-08-21T02:09:35;12.63;;;8.30;;
35128;SDS011;21301;43.626;10.580;2023-08-21T02:12:00;10.07;;;8.27;;
35128;SDS011;21301;43.626;10.580;2023-08-21T02:14:26;13.23;;;8.93;;
35128;SDS011;21301;43.626;10.580;2023-08-21T02:16:53;9.48;;;7.65;;
35128;SDS011;21301;43.626;10.580;2023-08-21T02:19:18;12.00;;;8.13;;
35128;SDS011;21301;43.626;10.580;2023-08-21T02:21:44;10.05;;;8.07;;
35128;SDS011;21301;43.626;10.580;2023-08-21T02:24:10;10.48;;;8.82;;
35128;SDS011;21301;43.626;10.580;2023-08-21T02:26:37;11.38;;;9.15;;
35128;SDS011;21301;43.626;10.580;2023-08-21T02:29:03;11.55;;;8.82;;
35128;SDS011;21301;43.626;10.580;2023-08-21T02:31:29;11.10;;;8.48;;
35128;SDS011;21301;43.626;10.580;2023-08-21T02:33:55;10.82;;;8.52;;
35128;SDS011;21301;43.626;10.580;2023-08-21T02:36:20;11.73;;;8.52;;
35128;SDS011;21301;43.626;10.580;2023-08-21T02:38:47;9.77;;;7.40;;
35128;SDS011;21301;43.626;10.580;2023-08-21T02:41:15;10.32;;;8.52;;
35128;SDS011;21301;43.626;10.580;2023-08-21T02:43:40;9.80;;;7.95;;
35128;SDS011;21301;43.626;10.580;2023-08-21T02:46:06;11.25;;;8.80;;
35128;SDS011;21301;43.626;10.580;2023-08-21T02:48:32;11.95;;;9.13;;
35128;SDS011;21301;43.626;10.580;2023-08-21T02:50:59;10.60;;;8.60;;
35128;SDS011;21301;43.626;10.580;2023-08-21T02:53:28;16.10;;;9.93;;
35128;SDS011;21301;43.626;10.580;2023-08-21T02:55:54;10.88;;;8.52;;
35128;SDS011;21301;43.626;10.580;2023-08-21T02:58:19;11.48;;;8.95;;
35128;SDS011;21301;43.626;10.580;2023-08-21T03:00:46;12.05;;;10.00;;
35128;SDS011;21301;43.626;10.580;2023-08-21T03:03:12;12.13;;;8.25;;
35128;SDS011;21301;43.626;10.580;2023-08-21T03:05:37;12.05;;;8.70;;
35128;SDS011;21301;43.626;10.580;2023-08-21T03:08:03;12.05;;;9.20;;
35128;SDS011;21301;43.626;10.580;2023-08-21T03:10:30;10.75;;;8.30;;
35128;SDS011;21301;43.626;10.580;2023-08-21T03:13:00;12.88;;;8.18;;
35128;SDS011;21301;43.626;10.580;2023-08-21T03:15:26;10.90;;;8.57;;
35128;SDS011;21301;43.626;10.580;2023-08-21T03:17:52;11.93;;;9.43;;
35128;SDS011;21301;43.626;10.580;2023-08-21T03:20:18;10.02;;;8.13;;
35128;SDS011;21301;43.626;10.580;2023-08-21T03:22:44;13.25;;;8.57;;
35128;SDS011;21301;43.626;10.580;2023-08-21T03:25:11;14.45;;;9.00;;
35128;SDS011;21301;43.626;10.580;2023-08-21T03:27:36;12.95;;;8.73;;
35128;SDS011;21301;43.626;10.580;2023-08-21T03:30:05;12.85;;;9.15;;
35128;SDS011;21301;43.626;10.580;2023-08-21T03:32:33;12.32;;;8.55;;
35128;SDS011;21301;43.626;10.580;2023-08-21T03:35:00;10.35;;;9.10;;
35128;SDS011;21301;43.626;10.580;2023-08-21T03:37:26;12.90;;;9.05;;
35128;SDS011;21301;43.626;10.580;2023-08-21T03:39:52;12.82;;;9.90;;
35128;SDS011;21301;43.626;10.580;2023-08-21T03:42:17;10.70;;;8.93;;
35128;SDS011;21301;43.626;10.580;2023-08-21T03:44:44;17.55;;;9.45;;
35128;SDS011;21301;43.626;10.580;2023-08-21T03:47:13;10.88;;;9.02;;
35128;SDS011;21301;43.626;10.580;2023-08-21T03:49:49;14.95;;;9.50;;
35128;SDS011;21301;43.626;10.580;2023-08-21T03:52:16;12.13;;;9.32;;
35128;SDS011;21301;43.626;10.580;2023-08-21T03:54:42;14.48;;;9.70;;
35128;SDS011;21301;43.626;10.580;2023-08-21T03:57:08;11.90;;;9.35;;
35128;SDS011;21301;43.626;10.580;2023-08-21T03:59:34;11.65;;;9.27;;
35128;SDS011;21301;43.626;10.580;2023-08-21T04:02:00;12.10;;;9.57;;
35128;SDS011;21301;43.626;10.580;2023-08-21T04:04:26;12.23;;;9.18;;
35128;SDS011;21301;43.626;10.580;2023-08-21T04:06:51;12.20;;;9.23;;
35128;SDS011;21301;43.626;10.580;2023-08-21T04:09:17;14.70;;;9.35;;
35128;SDS011;21301;43.626;10.580;2023-08-21T04:11:43;14.30;;;9.63;;
35128;SDS011;21301;43.626;10.580;2023-08-21T04:14:09;16.90;;;9.20;;
35128;SDS011;21301;43.626;10.580;2023-08-21T04:16:34;15.63;;;10.40;;
35128;SDS011;21301;43.626;10.580;2023-08-21T04:19:00;16.63;;;10.80;;
35128;SDS011;21301;43.626;10.580;2023-08-21T04:21:26;14.63;;;10.48;;
35128;SDS011;21301;43.626;10.580;2023-08-21T04:23:52;12.90;;;10.05;;
35128;SDS011;21301;43.626;10.580;2023-08-21T04:26:18;15.77;;;9.80;;
35128;SDS011;21301;43.626;10.580;2023-08-21T04:28:45;24.83;;;11.88;;
35128;SDS011;21301;43.626;10.580;2023-08-21T04:31:11;14.50;;;11.07;;
35128;SDS011;21301;43.626;10.580;2023-08-21T04:33:37;18.40;;;11.00;;
35128;SDS011;21301;43.626;10.580;2023-08-21T04:36:03;14.50;;;9.85;;
35128;SDS011;21301;43.626;10.580;2023-08-21T04:38:29;14.57;;;10.15;;
35128;SDS011;21301;43.626;10.580;2023-08-21T04:40:55;16.27;;;10.52;;
35128;SDS011;21301;43.626;10.580;2023-08-21T04:43:21;13.65;;;10.52;;
35128;SDS011;21301;43.626;10.580;2023-08-21T04:45:49;15.25;;;10.68;;
35128;SDS011;21301;43.626;10.580;2023-08-21T04:48:19;13.50;;;10.25;;
35128;SDS011;21301;43.626;10.580;2023-08-21T04:50:47;14.27;;;10.20;;
35128;SDS011;21301;43.626;10.580;2023-08-21T04:53:13;13.15;;;11.10;;
35128;SDS011;21301;43.626;10.580;2023-08-21T04:55:39;12.32;;;9.82;;
35128;SDS011;21301;43.626;10.580;2023-08-21T04:58:07;14.07;;;11.10;;
35128;SDS011;21301;43.626;10.580;2023-08-21T05:00:33;12.88;;;10.07;;
35128;SDS011;21301;43.626;10.580;2023-08-21T05:02:59;12.43;;;9.15;;
35128;SDS011;21301;43.626;10.580;2023-08-21T05:05:25;15.27;;;9.57;;
35128;SDS011;21301;43.626;10.580;2023-08-21T05:07:52;14.75;;;9.00;;
35128;SDS011;21301;43.626;10.580;2023-08-21T05:10:19;12.60;;;9.43;;
35128;SDS011;21301;43.626;10.580;2023-08-21T05:12:45;14.63;;;9.35;;
35128;SDS011;21301;43.626;10.580;2023-08-21T05:15:12;12.52;;;9.48;;
35128;SDS011;21301;43.626;10.580;2023-08-21T05:17:38;13.23;;;9.73;;
35128;SDS011;21301;43.626;10.580;2023-08-21T05:20:04;11.25;;;8.38;;
35128;SDS011;21301;43.626;10.580;2023-08-21T05:22:31;13.45;;;9.13;;
35128;SDS011;21301;43.626;10.580;2023-08-21T05:24:57;12.35;;;8.75;;
35128;SDS011;21301;43.626;10.580;2023-08-21T05:27:23;10.68;;;8.77;;
35128;SDS011;21301;43.626;10.580;2023-08-21T05:29:49;12.10;;;8.88;;
35128;SDS011;21301;43.626;10.580;2023-08-21T05:32:16;15.70;;;8.48;;
35128;SDS011;21301;43.626;10.580;2023-08-21T05:34:43;13.77;;;8.27;;
35128;SDS011;21301;43.626;10.580;2023-08-21T05:37:10;13.05;;;9.13;;
35128;SDS011;21301;43.626;10.580;2023-08-21T05:39:36;18.15;;;9.02;;
35128;SDS011;21301;43.626;10.580;2023-08-21T05:42:03;13.75;;;9.02;;
35128;SDS011;21301;43.626;10.580;2023-08-21T05:44:30;13.38;;;8.20;;
35128;SDS011;21301;43.626;10.580;2023-08-21T05:46:57;20.35;;;9.30;;
35128;SDS011;21301;43.626;10.580;2023-08-21T05:49:23;15.20;;;10.60;;
35128;SDS011;21301;43.626;10.580;2023-08-21T05:51:48;14.18;;;8.88;;
35128;SDS011;21301;43.626;10.580;2023-08-21T05:54:14;13.32;;;8.95;;
35128;SDS011;21301;43.626;10.580;2023-08-21T05:56:41;19.75;;;9.23;;
35128;SDS011;21301;43.626;10.580;2023-08-21T05:59:11;12.55;;;8.88;;
35128;SDS011;21301;43.626;10.580;2023-08-21T06:02:05;11.27;;;8.95;;
35128;SDS011;21301;43.626;10.580;2023-08-21T06:04:31;15.93;;;9.32;;
35128;SDS011;21301;43.626;10.580;2023-08-21T06:07:01;13.93;;;8.80;;
35128;SDS011;21301;43.626;10.580;2023-08-21T06:09:28;13.18;;;9.73;;
35128;SDS011;21301;43.626;10.580;2023-08-21T06:11:55;14.15;;;9.23;;
35128;SDS011;21301;43.626;10.580;2023-08-21T06:14:21;19.15;;;8.95;;
35128;SDS011;21301;43.626;10.580;2023-08-21T06:16:56;11.77;;;8.60;;
35128;SDS011;21301;43.626;10.580;2023-08-21T06:19:23;10.35;;;8.38;;
35128;SDS011;21301;43.626;10.580;2023-08-21T06:21:49;9.77;;;8.25;;
35128;SDS011;21301;43.626;10.580;2023-08-21T06:24:14;9.98;;;7.28;;
35128;SDS011;21301;43.626;10.580;2023-08-21T06:26:40;9.63;;;7.90;;
35128;SDS011;21301;43.626;10.580;2023-08-21T06:29:06;9.75;;;7.80;;
35128;SDS011;21301;43.626;10.580;2023-08-21T06:31:32;9.65;;;7.82;;
35128;SDS011;21301;43.626;10.580;2023-08-21T06:33:58;10.10;;;7.88;;
35128;SDS011;21301;43.626;10.580;2023-08-21T06:36:24;10.07;;;7.95;;
35128;SDS011;21301;43.626;10.580;2023-08-21T06:38:55;10.35;;;7.60;;
35128;SDS011;21301;43.626;10.580;2023-08-21T06:41:21;15.13;;;8.90;;
35128;SDS011;21301;43.626;10.580;2023-08-21T06:43:48;13.40;;;7.72;;
35128;SDS011;21301;43.626;10.580;2023-08-21T06:46:17;10.02;;;7.78;;
35128;SDS011;21301;43.626;10.580;2023-08-21T06:52:31;18.27;;;7.55;;
35128;SDS011;21301;43.626;10.580;2023-08-21T06:58:44;14.32;;;7.25;;
35128;SDS011;21301;43.626;10.580;2023-08-21T07:01:10;14.93;;;7.97;;
35128;SDS011;21301;43.626;10.580;2023-08-21T07:03:35;11.57;;;7.43;;
35128;SDS011;21301;43.626;10.580;2023-08-21T07:06:01;9.48;;;7.57;;
35128;SDS011;21301;43.626;10.580;2023-08-21T07:08:28;12.00;;;8.02;;
35128;SDS011;21301;43.626;10.580;2023-08-21T07:10:54;8.52;;;6.93;;
35128;SDS011;21301;43.626;10.580;2023-08-21T07:13:19;9.98;;;6.88;;
35128;SDS011;21301;43.626;10.580;2023-08-21T07:15:46;9.10;;;7.15;;
35128;SDS011;21301;43.626;10.580;2023-08-21T07:18:13;10.88;;;7.32;;
35128;SDS011;21301;43.626;10.580;2023-08-21T07:20:39;17.33;;;7.90;;
35128;SDS011;21301;43.626;10.580;2023-08-21T07:23:05;9.45;;;7.30;;
35128;SDS011;21301;43.626;10.580;2023-08-21T07:25:31;10.40;;;7.57;;
35128;SDS011;21301;43.626;10.580;2023-08-21T07:27:57;9.15;;;7.53;;
35128;SDS011;21301;43.626;10.580;2023-08-21T07:30:23;8.93;;;7.60;;
35128;SDS011;21301;43.626;10.580;2023-08-21T07:32:49;10.73;;;7.00;;
35128;SDS011;21301;43.626;10.580;2023-08-21T07:35:15;12.27;;;6.97;;
35128;SDS011;21301;43.626;10.580;2023-08-21T07:37:45;8.38;;;7.03;;
35128;SDS011;21301;43.626;10.580;2023-08-21T07:40:11;9.80;;;7.25;;
35128;SDS011;21301;43.626;10.580;2023-08-21T07:42:38;8.27;;;6.82;;
35128;SDS011;21301;43.626;10.580;2023-08-21T07:45:03;11.10;;;7.13;;
35128;SDS011;21301;43.626;10.580;2023-08-21T07:47:30;10.35;;;7.68;;
35128;SDS011;21301;43.626;10.580;2023-08-21T07:49:56;8.77;;;7.25;;
35128;SDS011;21301;43.626;10.580;2023-08-21T07:52:22;8.50;;;6.45;;
35128;SDS011;21301;43.626;10.580;2023-08-21T07:54:52;8.65;;;7.10;;
35128;SDS011;21301;43.626;10.580;2023-08-21T07:57:18;7.60;;;5.72;;
35128;SDS011;21301;43.626;10.580;2023-08-21T07:59:44;9.20;;;6.60;;
35128;SDS011;21301;43.626;10.580;2023-08-21T08:02:10;10.02;;;6.93;;
35128;SDS011;21301;43.626;10.580;2023-08-21T08:04:38;10.45;;;7.60;;
35128;SDS011;21301;43.626;10.580;2023-08-21T08:07:04;9.63;;;6.75;;
35128;SDS011;21301;43.626;10.580;2023-08-21T08:09:30;10.82;;;7.55;;
35128;SDS011;21301;43.626;10.580;2023-08-21T08:11:56;12.50;;;6.60;;
35128;SDS011;21301;43.626;10.580;2023-08-21T08:14:21;9.50;;;7.32;;
35128;SDS011;21301;43.626;10.580;2023-08-21T08:20:17;8.15;;;6.35;;
35128;SDS011;21301;43.626;10.580;2023-08-21T08:22:45;12.07;;;7.00;;
35128;SDS011;21301;43.626;10.580;2023-08-21T08:25:17;10.45;;;7.47;;
35128;SDS011;21301;43.626;10.580;2023-08-21T08:30:09;9.07;;;6.43;;
35128;SDS011;21301;43.626;10.580;2023-08-21T08:32:35;7.68;;;6.25;;
35128;SDS011;21301;43.626;10.580;2023-08-21T08:35:01;8.63;;;6.40;;
35128;SDS011;21301;43.626;10.580;2023-08-21T08:37:28;10.13;;;6.88;;
35128;SDS011;21301;43.626;10.580;2023-08-21T08:39:54;9.77;;;6.72;;
35128;SDS011;21301;43.626;10.580;2023-08-21T08:42:19;7.88;;;6.70;;
35128;SDS011;21301;43.626;10.580;2023-08-21T08:44:45;10.65;;;6.63;;
35128;SDS011;21301;43.626;10.580;2023-08-21T08:47:13;10.70;;;7.00;;
35128;SDS011;21301;43.626;10.580;2023-08-21T08:49:39;8.13;;;6.75;;
35128;SDS011;21301;43.626;10.580;2023-08-21T08:52:05;8.70;;;6.00;;
35128;SDS011;21301;43.626;10.580;2023-08-21T08:54:32;8.05;;;6.05;;
35128;SDS011;21301;43.626;10.580;2023-08-21T08:57:00;9.88;;;6.68;;
35128;SDS011;21301;43.626;10.580;2023-08-21T08:59:29;10.93;;;7.03;;
35128;SDS011;21301;43.626;10.580;2023-08-21T09:01:56;12.15;;;6.45;;
35128;SDS011;21301;43.626;10.580;2023-08-21T09:04:22;9.45;;;6.25;;
35128;SDS011;21301;43.626;10.580;2023-08-21T09:06:48;8.27;;;6.05;;
35128;SDS011;21301;43.626;10.580;2023-08-21T09:09:14;11.57;;;6.43;;
35128;SDS011;21301;43.626;10.580;2023-08-21T09:11:44;9.07;;;5.85;;
35128;SDS011;21301;43.626;10.580;2023-08-21T09:14:13;11.70;;;5.90;;
35128;SDS011;21301;43.626;10.580;2023-08-21T09:16:56;8.05;;;6.13;;
35128;SDS011;21301;43.626;10.580;2023-08-21T09:19:32;8.98;;;6.30;;
35128;SDS011;21301;43.626;10.580;2023-08-21T09:21:58;8.38;;;5.50;;
35128;SDS011;21301;43.626;10.580;2023-08-21T09:24:32;6.47;;;5.45;;
35128;SDS011;21301;43.626;10.580;2023-08-21T09:26:58;7.82;;;5.55;;
35128;SDS011;21301;43.626;10.580;2023-08-21T09:29:27;10.85;;;6.28;;
35128;SDS011;21301;43.626;10.580;2023-08-21T09:32:04;14.15;;;5.85;;
35128;SDS011;21301;43.626;10.580;2023-08-21T09:34:34;7.35;;;5.30;;
35128;SDS011;21301;43.626;10.580;2023-08-21T09:37:01;9.70;;;5.55;;
35128;SDS011;21301;43.626;10.580;2023-08-21T09:39:35;8.13;;;5.55;;
35128;SDS011;21301;43.626;10.580;2023-08-21T09:42:05;8.48;;;6.07;;
35128;SDS011;21301;43.626;10.580;2023-08-21T09:44:38;10.57;;;5.70;;
35128;SDS011;21301;43.626;10.580;2023-08-21T09:47:10;11.10;;;6.05;;
35128;SDS011;21301;43.626;10.580;2023-08-21T09:49:38;7.50;;;5.90;;
35128;SDS011;21301;43.626;10.580;2023-08-21T09:52:07;6.95;;;5.10;;
35128;SDS011;21301;43.626;10.580;2023-08-21T09:54:38;8.27;;;5.88;;
35128;SDS011;21301;43.626;10.580;2023-08-21T09:57:04;11.65;;;6.40;;
35128;SDS011;21301;43.626;10.580;2023-08-21T09:59:30;6.55;;;5.03;;
35128;SDS011;21301;43.626;10.580;2023-08-21T10:01:57;11.98;;;5.22;;
35128;SDS011;21301;43.626;10.580;2023-08-21T10:04:27;7.20;;;5.25;;
35128;SDS011;21301;43.626;10.580;2023-08-21T10:06:55;8.27;;;5.82;;
35128;SDS011;21301;43.626;10.580;2023-08-21T10:09:22;7.68;;;5.20;;
35128;SDS011;21301;43.626;10.580;2023-08-21T10:11:49;10.25;;;4.60;;
35128;SDS011;21301;43.626;10.580;2023-08-21T10:14:18;7.75;;;5.07;;
35128;SDS011;21301;43.626;10.580;2023-08-21T10:16:44;6.53;;;5.32;;
35128;SDS011;21301;43.626;10.580;2023-08-21T10:19:12;9.52;;;4.57;;
35128;SDS011;21301;43.626;10.580;2023-08-21T10:21:39;6.50;;;5.15;;
35128;SDS011;21301;43.626;10.580;2023-08-21T10:24:05;8.93;;;5.28;;
35128;SDS011;21301;43.626;10.580;2023-08-21T10:26:31;10.52;;;5.10;;
35128;SDS011;21301;43.626;10.580;2023-08-21T10:29:04;7.90;;;5.25;;
35128;SDS011;21301;43.626;10.580;2023-08-21T10:31:35;8.32;;;4.97;;
35128;SDS011;21301;43.626;10.580;2023-08-21T10:34:08;7.38;;;5.55;;
35128;SDS011;21301;43.626;10.580;2023-08-21T10:36:39;8.20;;;5.65;;
35128;SDS011;21301;43.626;10.580;2023-08-21T10:39:15;7.50;;;5.32;;
35128;SDS011;21301;43.626;10.580;2023-08-21T10:41:57;10.60;;;4.88;;
35128;SDS011;21301;43.626;10.580;2023-08-21T10:47:20;9.77;;;4.63;;
35128;SDS011;21301;43.626;10.580;2023-08-21T10:49:52;6.80;;;4.18;;
35128;SDS011;21301;43.626;10.580;2023-08-21T10:52:20;7.85;;;4.25;;
35128;SDS011;21301;43.626;10.580;2023-08-21T10:54:52;5.22;;;3.55;;
35128;SDS011;21301;43.626;10.580;2023-08-21T10:59:56;9.70;;;4.88;;
35128;SDS011;21301;43.626;10.580;2023-08-21T11:02:24;6.63;;;4.40;;
35128;SDS011;21301;43.626;10.580;2023-08-21T11:08:54;8.07;;;3.95;;
35128;SDS011;21301;43.626;10.580;2023-08-21T11:11:20;6.05;;;4.47;;
35128;SDS011;21301;43.626;10.580;2023-08-21T11:13:52;9.00;;;4.57;;
35128;SDS011;21301;43.626;10.580;2023-08-21T11:16:18;9.10;;;3.78;;
35128;SDS011;21301;43.626;10.580;2023-08-21T11:18:44;6.72;;;3.95;;
35128;SDS011;21301;43.626;10.580;2023-08-21T11:21:11;10.10;;;4.85;;
35128;SDS011;21301;43.626;10.580;2023-08-21T11:23:38;5.18;;;3.80;;
35128;SDS011;21301;43.626;10.580;2023-08-21T11:26:05;4.95;;;3.42;;
35128;SDS011;21301;43.626;10.580;2023-08-21T11:28:32;6.07;;;3.60;;
35128;SDS011;21301;43.626;10.580;2023-08-21T11:30:58;7.25;;;2.78;;
35128;SDS011;21301;43.626;10.580;2023-08-21T11:33:25;7.63;;;4.00;;
35128;SDS011;21301;43.626;10.580;2023-08-21T11:35:51;6.15;;;3.47;;
35128;SDS011;21301;43.626;10.580;2023-08-21T11:38:19;6.28;;;3.42;;
35128;SDS011;21301;43.626;10.580;2023-08-21T11:40:52;6.55;;;3.42;;
35128;SDS011;21301;43.626;10.580;2023-08-21T11:43:20;5.78;;;3.30;;
35128;SDS011;21301;43.626;10.580;2023-08-21T11:45:46;6.55;;;3.90;;
35128;SDS011;21301;43.626;10.580;2023-08-21T11:48:12;6.13;;;3.63;;
35128;SDS011;21301;43.626;10.580;2023-08-21T11:50:38;7.43;;;3.42;;
35128;SDS011;21301;43.626;10.580;2023-08-21T11:53:04;6.30;;;3.78;;
35128;SDS011;21301;43.626;10.580;2023-08-21T11:55:31;7.55;;;3.88;;
35128;SDS011;21301;43.626;10.580;2023-08-21T15:24:26;6.93;;;4.35;;
35128;SDS011;21301;43.626;10.580;2023-08-21T15:26:52;8.30;;;4.40;;
35128;SDS011;21301;43.626;10.580;2023-08-21T15:29:19;6.03;;;4.25;;
35128;SDS011;21301;43.626;10.580;2023-08-21T15:31:44;7.32;;;3.95;;
35128;SDS011;21301;43.626;10.580;2023-08-21T15:34:10;8.18;;;4.45;;
35128;SDS011;21301;43.626;10.580;2023-08-21T15:36:37;5.93;;;4.50;;
35128;SDS011;21301;43.626;10.580;2023-08-21T15:39:05;6.07;;;4.45;;
35128;SDS011;21301;43.626;10.580;2023-08-21T15:41:30;6.90;;;4.53;;
35128;SDS011;21301;43.626;10.580;2023-08-21T15:43:56;6.18;;;4.30;;
35128;SDS011;21301;43.626;10.580;2023-08-21T15:46:23;5.70;;;4.15;;
35128;SDS011;21301;43.626;10.580;2023-08-21T15:48:53;5.22;;;4.15;;
35128;SDS011;21301;43.626;10.580;2023-08-21T15:51:18;6.55;;;4.03;;
35128;SDS011;21301;43.626;10.580;2023-08-21T15:53:44;5.93;;;4.38;;
35128;SDS011;21301;43.626;10.580;2023-08-21T15:56:10;7.10;;;4.47;;
35128;SDS011;21301;43.626;10.580;2023-08-21T15:58:36;9.68;;;5.43;;
35128;SDS011;21301;43.626;10.580;2023-08-21T16:01:02;8.93;;;5.20;;
35128;SDS011;21301;43.626;10.580;2023-08-21T16:03:28;8.00;;;4.30;;
35128;SDS011;21301;43.626;10.580;2023-08-21T16:05:53;9.30;;;4.35;;
35128;SDS011;21301;43.626;10.580;2023-08-21T16:08:19;6.88;;;4.38;;
35128;SDS011;21301;43.626;10.580;2023-08-21T16:10:45;11.18;;;4.55;;
35128;SDS011;21301;43.626;10.580;2023-08-21T16:13:11;7.45;;;4.60;;
35128;SDS011;21301;43.626;10.580;2023-08-21T16:15:38;8.27;;;4.90;;
35128;SDS011;21301;43.626;10.580;2023-08-21T16:18:04;10.98;;;4.57;;
35128;SDS011;21301;43.626;10.580;2023-08-21T16:20:30;6.07;;;4.35;;
35128;SDS011;21301;43.626;10.580;2023-08-21T16:22:57;7.78;;;4.60;;
35128;SDS011;21301;43.626;10.580;2023-08-21T16:25:23;8.35;;;4.82;;
35128;SDS011;21301;43.626;10.580;2023-08-21T16:27:49;9.60;;;5.03;;
35128;SDS011;21301;43.626;10.580;2023-08-21T16:30:15;6.82;;;4.60;;
35128;SDS011;21301;43.626;10.580;2023-08-21T16:32:41;7.88;;;4.85;;
35128;SDS011;21301;43.626;10.580;2023-08-21T16:35:07;10.38;;;4.70;;
35128;SDS011;21301;43.626;10.580;2023-08-21T16:37:33;10.73;;;5.30;;
35128;SDS011;21301;43.626;10.580;2023-08-21T16:39:58;7.55;;;4.75;;
35128;SDS011;21301;43.626;10.580;2023-08-21T16:44:34;6.57;;;5.15;;
35128;SDS011;21301;43.626;10.580;2023-08-21T16:47:01;7.78;;;4.80;;
35128;SDS011;21301;43.626;10.580;2023-08-21T16:49:26;7.40;;;5.53;;
35128;SDS011;21301;43.626;10.580;2023-08-21T16:51:52;6.80;;;5.00;;
35128;SDS011;21301;43.626;10.580;2023-08-21T16:54:18;8.93;;;5.32;;
35128;SDS011;21301;43.626;10.580;2023-08-21T16:56:46;10.15;;;5.13;;
35128;SDS011;21301;43.626;10.580;2023-08-21T16:59:12;9.98;;;4.97;;
35128;SDS011;21301;43.626;10.580;2023-08-21T17:01:37;8.45;;;5.72;;
35128;SDS011;21301;43.626;10.580;2023-08-21T17:04:03;9.15;;;5.25;;
35128;SDS011;21301;43.626;10.580;2023-08-21T17:06:29;7.60;;;5.50;;
35128;SDS011;21301;43.626;10.580;2023-08-21T17:08:55;9.32;;;5.40;;
35128;SDS011;21301;43.626;10.580;2023-08-21T17:11:20;7.07;;;4.93;;
35128;SDS011;21301;43.626;10.580;2023-08-21T17:13:46;10.75;;;5.45;;
35128;SDS011;21301;43.626;10.580;2023-08-21T17:16:17;10.77;;;5.60;;
35128;SDS011;21301;43.626;10.580;2023-08-21T17:18:44;12.48;;;5.22;;
35128;SDS011;21301;43.626;10.580;2023-08-21T17:21:09;8.80;;;5.82;;
35128;SDS011;21301;43.626;10.580;2023-08-21T17:23:38;8.35;;;5.30;;
35128;SDS011;21301;43.626;10.580;2023-08-21T17:26:05;12.45;;;6.13;;
35128;SDS011;21301;43.626;10.580;2023-08-21T17:28:31;10.20;;;5.50;;
35128;SDS011;21301;43.626;10.580;2023-08-21T17:30:58;12.73;;;5.68;;
35128;SDS011;21301;43.626;10.580;2023-08-21T17:33:24;9.13;;;5.78;;
35128;SDS011;21301;43.626;10.580;2023-08-21T17:35:51;10.32;;;5.22;;
35128;SDS011;21301;43.626;10.580;2023-08-21T17:38:17;10.43;;;6.15;;
35128;SDS011;21301;43.626;10.580;2023-08-21T17:40:42;11.63;;;6.35;;
35128;SDS011;21301;43.626;10.580;2023-08-21T17:43:10;12.38;;;5.47;;
35128;SDS011;21301;43.626;10.580;2023-08-21T17:45:35;11.30;;;6.30;;
35128;SDS011;21301;43.626;10.580;2023-08-21T17:48:01;10.48;;;5.65;;
35128;SDS011;21301;43.626;10.580;2023-08-21T17:50:28;8.60;;;6.25;;
35128;SDS011;21301;43.626;10.580;2023-08-21T17:52:54;8.73;;;6.47;;
35128;SDS011;21301;43.626;10.580;2023-08-21T17:55:20;11.65;;;6.45;;
35128;SDS011;21301;43.626;10.580;2023-08-21T17:57:46;10.23;;;6.30;;
35128;SDS011;21301;43.626;10.580;2023-08-21T18:00:12;10.80;;;6.47;;
35128;SDS011;21301;43.626;10.580;2023-08-21T18:02:40;14.20;;;6.28;;
35128;SDS011;21301;43.626;10.580;2023-08-21T18:05:07;9.68;;;6.47;;
35128;SDS011;21301;43.626;10.580;2023-08-21T18:07:35;7.93;;;5.93;;
35128;SDS011;21301;43.626;10.580;2023-08-21T18:10:01;18.75;;;7.18;;
35128;SDS011;21301;43.626;10.580;2023-08-21T18:12:28;16.77;;;7.40;;
35128;SDS011;21301;43.626;10.580;2023-08-21T18:14:54;12.32;;;5.70;;
35128;SDS011;21301;43.626;10.580;2023-08-21T18:17:20;13.82;;;6.93;;